createdAt,value
2023-08-14T00:02:31.554Z,6.20
2023-08-14T00:05:04.336Z,6.40
2023-08-14T00:07:37.155Z,8.50
2023-08-14T00:10:09.861Z,6.72
2023-08-14T00:12:42.762Z,5.80
2023-08-14T00:15:15.345Z,11.70
2023-08-14T00:17:48.204Z,5.32
2023-08-14T00:20:21.249Z,5.80
2023-08-14T00:22:54.062Z,7.75
2023-08-14T00:25:26.587Z,8.25
2023-08-14T00:27:59.420Z,8.05
2023-08-14T00:30:31.981Z,7.65
2023-08-14T00:33:05.035Z,7.88
2023-08-14T00:35:37.539Z,7.07
2023-08-14T00:38:10.428Z,4.63
2023-08-14T00:40:44.060Z,6.20
2023-08-14T00:43:16.846Z,5.45
2023-08-14T00:45:51.681Z,4.80
2023-08-14T00:48:26.390Z,11.70
2023-08-14T00:50:59.944Z,4.82
2023-08-14T00:53:32.996Z,9.30
2023-08-14T00:56:06.654Z,5.60
2023-08-14T00:58:39.721Z,15.23
2023-08-14T01:01:12.492Z,6.68
2023-08-14T01:03:45.360Z,7.47
2023-08-14T01:06:17.902Z,9.40
2023-08-14T01:08:50.826Z,5.43
2023-08-14T01:11:31.915Z,7.00
2023-08-14T01:14:26.806Z,7.32
2023-08-14T01:17:04.642Z,6.40
2023-08-14T01:19:42.691Z,8.07
2023-08-14T01:22:30.751Z,9.10
2023-08-14T01:25:35.048Z,8.75
2023-08-14T01:28:09.741Z,9.70
2023-08-14T01:30:43.286Z,9.90
2023-08-14T01:33:16.007Z,3.92
2023-08-14T01:36:26.650Z,5.20
2023-08-14T01:39:11.632Z,6.65
2023-08-14T01:41:52.293Z,5.70
2023-08-14T01:44:26.701Z,4.30
2023-08-14T01:47:01.939Z,4.95
2023-08-14T01:49:37.785Z,8.90
2023-08-14T01:52:11.033Z,4.57
2023-08-14T01:54:43.665Z,7.05
2023-08-14T01:57:16.455Z,3.65
2023-08-14T01:59:49.421Z,5.75
2023-08-14T02:02:22.408Z,5.45
2023-08-14T02:04:55.148Z,4.45
2023-08-14T02:07:28.077Z,5.18
2023-08-14T02:10:00.609Z,6.53
2023-08-14T02:12:33.491Z,4.70
2023-08-14T02:15:06.652Z,8.77
2023-08-14T02:17:39.645Z,4.28
2023-08-14T02:20:12.356Z,7.03
2023-08-14T02:22:45.497Z,6.50
2023-08-14T02:25:18.068Z,3.65
2023-08-14T02:27:50.880Z,4.32
2023-08-14T02:30:23.789Z,4.90
2023-08-14T02:32:57.988Z,4.70
2023-08-14T02:35:30.558Z,6.15
2023-08-14T02:38:06.719Z,7.43
2023-08-14T02:40:40.285Z,3.78
2023-08-14T02:43:13.200Z,4.30
2023-08-14T02:45:46.559Z,3.92
2023-08-14T02:48:19.428Z,4.22
2023-08-14T02:50:52.113Z,3.80
2023-08-14T02:53:24.876Z,5.60
2023-08-14T02:55:57.447Z,3.75
2023-08-14T02:58:31.863Z,5.68
2023-08-14T03:01:05.474Z,3.88
2023-08-14T03:03:38.397Z,3.67
2023-08-14T03:06:11.007Z,4.18
2023-08-14T03:08:43.818Z,4.57
2023-08-14T03:11:16.751Z,3.95
2023-08-14T03:13:49.665Z,7.32
2023-08-14T03:16:22.286Z,5.15
2023-08-14T03:18:55.105Z,4.03
2023-08-14T03:21:27.800Z,4.75
2023-08-14T03:24:00.756Z,5.95
2023-08-14T03:26:33.272Z,11.45
2023-08-14T03:29:06.155Z,4.57
2023-08-14T03:31:38.689Z,6.53
2023-08-14T03:34:11.523Z,4.43
2023-08-14T03:36:44.064Z,7.85
2023-08-14T03:39:17.039Z,8.05
2023-08-14T03:41:49.682Z,6.63
2023-08-14T03:44:22.490Z,4.85
2023-08-14T03:46:55.023Z,8.88
2023-08-14T03:49:28.009Z,3.92
2023-08-14T03:52:00.604Z,8.32
2023-08-14T03:54:33.478Z,5.35
2023-08-14T03:57:06.043Z,11.48
2023-08-14T03:59:38.837Z,3.80
2023-08-14T04:02:11.448Z,3.17
2023-08-14T04:04:44.338Z,5.20
2023-08-14T04:07:16.918Z,4.50
2023-08-14T04:09:49.715Z,6.38
2023-08-14T04:12:22.273Z,5.63
2023-08-14T04:14:55.077Z,5.45
2023-08-14T04:17:27.591Z,7.80
2023-08-14T04:20:00.380Z,3.83
2023-08-14T04:22:32.847Z,9.20
2023-08-14T04:25:06.435Z,4.75
2023-08-14T04:27:39.131Z,3.78
2023-08-14T04:30:12.524Z,5.63
2023-08-14T04:32:45.188Z,3.78
2023-08-14T04:35:18.071Z,4.05
2023-08-14T04:37:50.608Z,6.57
2023-08-14T04:40:23.485Z,6.45
2023-08-14T04:42:55.995Z,4.40
2023-08-14T04:45:28.829Z,5.95
2023-08-14T04:48:01.369Z,4.28
2023-08-14T04:50:34.241Z,4.60
2023-08-14T04:53:07.026Z,5.93
2023-08-14T04:55:40.025Z,7.20
2023-08-14T04:58:12.531Z,3.85
2023-08-14T05:00:45.411Z,6.18
2023-08-14T05:03:17.921Z,5.07
2023-08-14T05:05:52.658Z,5.57
2023-08-14T05:08:25.211Z,3.97
2023-08-14T05:10:58.488Z,4.78
2023-08-14T05:13:31.144Z,7.95
2023-08-14T05:16:08.742Z,3.55
2023-08-14T05:18:41.656Z,3.10
2023-08-14T05:21:14.450Z,3.80
2023-08-14T05:23:47.099Z,7.25
2023-08-14T05:26:19.875Z,5.43
2023-08-14T05:28:52.448Z,6.32
2023-08-14T05:31:25.279Z,3.45
2023-08-14T05:33:57.951Z,3.28
2023-08-14T05:36:30.750Z,4.82
2023-08-14T05:39:03.478Z,4.28
2023-08-14T05:41:36.330Z,6.72
2023-08-14T05:44:08.913Z,4.00
2023-08-14T05:46:45.993Z,6.85
2023-08-14T05:49:20.751Z,5.60
2023-08-14T05:51:53.520Z,4.85
2023-08-14T05:54:26.089Z,4.20
2023-08-14T05:56:58.910Z,4.82
2023-08-14T05:59:31.750Z,5.28
2023-08-14T06:02:04.637Z,8.75
2023-08-14T06:04:39.110Z,6.25
2023-08-14T06:07:11.954Z,6.00
2023-08-14T06:09:44.506Z,9.60
2023-08-14T06:12:18.882Z,7.78
2023-08-14T06:14:52.088Z,9.30
2023-08-14T06:17:25.485Z,6.78
2023-08-14T06:19:58.013Z,4.47
2023-08-14T06:22:30.785Z,5.90
2023-08-14T06:25:03.413Z,7.70
2023-08-14T06:27:36.368Z,7.53
2023-08-14T06:30:10.042Z,4.07
2023-08-14T06:32:42.947Z,5.93
2023-08-14T06:35:15.519Z,4.55
2023-08-14T06:37:48.336Z,3.70
2023-08-14T06:40:20.906Z,6.07
2023-08-14T06:42:54.045Z,3.17
2023-08-14T06:45:26.729Z,4.60
2023-08-14T06:47:59.562Z,3.83
2023-08-14T06:50:32.403Z,4.57
2023-08-14T06:53:05.291Z,5.03
2023-08-14T06:55:37.851Z,8.32
2023-08-14T06:58:10.628Z,9.10
2023-08-14T07:00:43.213Z,4.05
2023-08-14T07:03:16.234Z,7.20
2023-08-14T07:05:49.589Z,4.35
2023-08-14T07:08:22.509Z,4.53
2023-08-14T07:10:55.317Z,4.65
2023-08-14T07:13:28.209Z,7.50
2023-08-14T07:16:00.887Z,6.32
2023-08-14T07:18:33.812Z,3.40
2023-08-14T07:21:06.482Z,4.30
2023-08-14T07:23:39.701Z,5.18
2023-08-14T07:26:15.075Z,6.15
2023-08-14T07:28:47.869Z,3.03
2023-08-14T07:31:20.490Z,7.53
2023-08-14T07:33:53.476Z,4.00
2023-08-14T07:36:26.167Z,6.97
2023-08-14T07:38:58.944Z,3.03
2023-08-14T07:41:31.513Z,3.10
2023-08-14T07:44:04.578Z,2.90
2023-08-14T07:46:37.061Z,2.80
2023-08-14T07:49:09.857Z,4.25
2023-08-14T07:51:42.386Z,3.97
2023-08-14T07:54:15.187Z,2.97
2023-08-14T07:56:49.585Z,4.18
2023-08-14T07:59:24.256Z,2.85
2023-08-14T08:01:56.912Z,2.95
2023-08-14T08:04:39.640Z,3.35
2023-08-14T08:07:12.747Z,4.05
2023-08-14T08:09:45.600Z,5.70
2023-08-14T08:12:18.300Z,2.85
2023-08-14T08:14:51.233Z,3.15
2023-08-14T08:17:23.812Z,3.20
2023-08-14T08:19:56.642Z,2.72
2023-08-14T08:22:29.222Z,3.10
2023-08-14T08:25:02.119Z,3.47
2023-08-14T08:27:36.482Z,3.95
2023-08-14T08:30:10.632Z,2.45
2023-08-14T08:32:43.240Z,4.40
2023-08-14T08:35:16.104Z,4.95
2023-08-14T08:37:48.698Z,9.75
2023-08-14T08:40:22.619Z,6.57
2023-08-14T08:42:56.189Z,2.75
2023-08-14T08:45:33.480Z,3.67
2023-08-14T08:48:08.506Z,2.70
2023-08-14T08:50:45.589Z,3.28
2023-08-14T08:53:22.377Z,2.83
2023-08-14T08:55:56.052Z,3.40
2023-08-14T08:58:28.895Z,2.38
2023-08-14T09:01:02.561Z,4.90
2023-08-14T09:03:37.025Z,2.70
2023-08-14T09:06:11.570Z,2.20
2023-08-14T09:08:45.714Z,5.53
2023-08-14T09:11:19.350Z,3.17
2023-08-14T09:13:52.890Z,2.20
2023-08-14T09:16:28.733Z,3.65
2023-08-14T09:19:01.735Z,2.53
2023-08-14T09:21:38.579Z,2.00
2023-08-14T09:24:14.061Z,1.85
2023-08-14T09:26:49.207Z,4.68
2023-08-14T09:29:21.851Z,1.90
2023-08-14T09:31:54.810Z,1.80
2023-08-14T09:34:28.612Z,1.67
2023-08-14T09:37:01.609Z,2.38
2023-08-14T09:39:34.616Z,1.90
2023-08-14T09:42:10.559Z,2.75
2023-08-14T09:44:43.547Z,2.15
2023-08-14T09:47:16.869Z,1.95
2023-08-14T09:49:49.579Z,5.03
2023-08-14T09:52:24.668Z,2.35
2023-08-14T09:55:04.130Z,5.43
2023-08-14T09:57:44.013Z,2.85
2023-08-14T10:00:17.652Z,2.38
2023-08-14T10:02:53.004Z,3.00
2023-08-14T10:05:30.069Z,2.33
2023-08-14T10:08:05.401Z,2.55
2023-08-14T10:10:40.118Z,2.65
2023-08-14T10:13:13.555Z,2.58
2023-08-14T10:15:51.432Z,2.83
2023-08-14T10:18:26.595Z,2.60
2023-08-14T10:21:01.220Z,2.58
2023-08-14T10:23:35.538Z,2.90
2023-08-14T10:26:09.671Z,3.03
2023-08-14T10:28:44.226Z,2.42
2023-08-14T10:31:17.273Z,7.72
2023-08-14T10:33:51.048Z,2.17
2023-08-14T10:36:27.391Z,2.72
2023-08-14T10:39:19.118Z,2.08
2023-08-14T10:41:52.008Z,2.03
2023-08-14T10:44:33.646Z,4.80
2023-08-14T10:47:07.565Z,2.90
2023-08-14T10:49:59.672Z,2.05
2023-08-14T10:52:34.632Z,3.63
2023-08-14T10:55:18.665Z,1.92
2023-08-14T10:57:52.477Z,3.88
2023-08-14T11:00:28.219Z,5.47
2023-08-14T11:03:09.157Z,2.10
2023-08-14T11:05:42.914Z,6.20
2023-08-14T11:08:16.295Z,4.43
2023-08-14T11:10:53.117Z,3.00
2023-08-14T11:13:32.404Z,2.50
2023-08-14T11:16:07.206Z,4.05
2023-08-14T11:18:40.976Z,4.70
2023-08-14T11:21:30.871Z,4.55
2023-08-14T11:24:12.437Z,8.48
2023-08-14T11:26:48.232Z,3.70
2023-08-14T11:29:20.889Z,3.75
2023-08-14T11:31:54.006Z,15.57
2023-08-14T11:34:27.338Z,2.53
2023-08-14T11:37:07.697Z,3.40
2023-08-14T11:39:44.004Z,2.90
2023-08-14T11:42:20.554Z,2.72
2023-08-14T11:44:53.342Z,3.35
2023-08-14T11:47:36.201Z,2.85
2023-08-14T11:50:09.194Z,2.95
2023-08-14T11:52:45.076Z,6.05
2023-08-14T11:55:18.158Z,3.75
2023-08-14T11:57:52.506Z,4.03
2023-08-14T12:00:32.955Z,5.45
2023-08-14T12:03:10.048Z,2.67
2023-08-14T12:05:44.139Z,4.45
2023-08-14T12:08:17.080Z,8.25
2023-08-14T12:10:49.650Z,6.68
2023-08-14T12:13:22.511Z,3.30
2023-08-14T12:15:55.286Z,4.45
2023-08-14T12:18:28.160Z,2.85
2023-08-14T12:21:00.735Z,4.53
2023-08-14T12:23:33.928Z,2.60
2023-08-14T12:26:08.800Z,2.50
2023-08-14T12:28:42.524Z,2.50
2023-08-14T12:31:15.522Z,2.85
2023-08-14T12:33:53.466Z,3.00
2023-08-14T12:36:29.281Z,3.75
2023-08-14T12:39:02.105Z,5.30
2023-08-14T12:41:34.785Z,3.38
2023-08-14T12:44:07.809Z,2.13
2023-08-14T12:46:40.386Z,2.80
2023-08-14T12:49:13.209Z,3.28
2023-08-14T12:51:45.981Z,2.50
2023-08-14T12:54:18.762Z,3.72
2023-08-14T12:56:51.310Z,4.43
2023-08-14T12:59:25.263Z,2.42
2023-08-14T13:02:04.162Z,3.25
2023-08-14T13:04:37.000Z,2.40
2023-08-14T13:07:09.623Z,3.08
2023-08-14T13:09:42.468Z,5.18
2023-08-14T13:12:15.017Z,7.65
2023-08-14T13:14:47.926Z,5.32
2023-08-14T13:17:20.701Z,4.78
2023-08-14T13:19:54.491Z,3.75
2023-08-14T13:22:27.998Z,3.17
2023-08-14T13:25:00.783Z,2.38
2023-08-14T13:27:39.725Z,2.75
2023-08-14T13:30:20.231Z,2.50
2023-08-14T13:32:53.447Z,5.85
2023-08-14T13:35:26.318Z,2.42
2023-08-14T13:38:00.573Z,7.28
2023-08-14T13:40:33.771Z,2.28
2023-08-14T13:43:06.314Z,2.83
2023-08-14T13:45:39.121Z,3.55
2023-08-14T13:48:11.708Z,3.20
2023-08-14T13:50:44.595Z,2.35
2023-08-14T13:53:17.160Z,2.10
2023-08-14T13:55:52.739Z,4.07
2023-08-14T13:58:25.580Z,4.18
2023-08-14T14:01:02.250Z,2.03
2023-08-14T14:03:35.329Z,2.83
2023-08-14T14:06:10.487Z,3.42
2023-08-14T14:08:43.241Z,3.28
2023-08-14T14:11:16.098Z,4.18
2023-08-14T14:13:48.780Z,5.53
2023-08-14T14:16:23.603Z,2.78
2023-08-14T14:18:56.158Z,2.67
2023-08-14T14:21:29.078Z,1.92
2023-08-14T14:24:02.115Z,3.72
2023-08-14T14:26:35.091Z,2.67
2023-08-14T14:29:07.669Z,2.58
2023-08-14T14:31:40.660Z,2.15
2023-08-14T14:34:13.237Z,4.65
2023-08-14T14:36:46.182Z,2.25
2023-08-14T14:39:19.509Z,2.50
2023-08-14T14:41:55.030Z,2.25
2023-08-14T14:44:27.611Z,2.30
2023-08-14T14:47:00.504Z,4.55
2023-08-14T14:49:33.038Z,3.00
2023-08-14T14:52:06.290Z,4.75
2023-08-14T14:54:38.849Z,6.50
2023-08-14T14:57:11.762Z,4.25
2023-08-14T14:59:44.394Z,4.20
2023-08-14T15:02:28.929Z,2.10
2023-08-14T15:05:06.938Z,2.85
2023-08-14T15:10:13.984Z,3.65
2023-08-14T15:12:46.886Z,2.45
2023-08-14T15:15:19.413Z,6.60
2023-08-14T15:17:52.314Z,3.58
2023-08-14T15:20:26.802Z,2.28
2023-08-14T15:22:59.786Z,3.05
2023-08-14T15:25:35.699Z,3.42
2023-08-14T15:28:08.585Z,2.55
2023-08-14T15:30:42.872Z,2.78
2023-08-14T15:33:15.727Z,6.63
2023-08-14T15:35:48.287Z,1.90
2023-08-14T15:38:21.119Z,3.80
2023-08-14T15:40:53.647Z,3.63
2023-08-14T15:43:26.901Z,1.80
2023-08-14T15:46:03.810Z,2.13
2023-08-14T15:48:36.993Z,4.53
2023-08-14T15:51:09.652Z,5.88
2023-08-14T15:53:42.527Z,2.80
2023-08-14T15:56:15.076Z,2.50
2023-08-14T15:58:48.355Z,2.72
2023-08-14T16:01:21.286Z,6.78
2023-08-14T16:03:55.738Z,2.53
2023-08-14T16:06:30.319Z,6.75
2023-08-14T16:09:04.357Z,2.25
2023-08-14T16:11:36.948Z,3.60
2023-08-14T16:14:10.227Z,2.17
2023-08-14T16:16:43.018Z,4.15
2023-08-14T16:19:16.440Z,2.47
2023-08-14T16:21:49.269Z,1.75
2023-08-14T16:24:23.186Z,3.60
2023-08-14T16:26:56.057Z,3.13
2023-08-14T16:29:34.468Z,4.53
2023-08-14T16:32:07.474Z,1.80
2023-08-14T16:34:42.949Z,3.55
2023-08-14T16:37:15.694Z,2.15
2023-08-14T16:39:48.786Z,6.47
2023-08-14T16:42:22.044Z,2.00
2023-08-14T16:44:55.094Z,2.83
2023-08-14T16:47:29.307Z,2.08
2023-08-14T16:50:02.424Z,3.03
2023-08-14T16:52:36.280Z,8.88
2023-08-14T16:55:10.382Z,2.20
2023-08-14T16:57:43.665Z,3.70
2023-08-14T17:00:18.085Z,7.25
2023-08-14T17:02:50.764Z,6.45
2023-08-14T17:05:24.792Z,2.55
2023-08-14T17:07:57.902Z,4.22
2023-08-14T17:10:31.627Z,5.47
2023-08-14T17:13:04.333Z,4.13
2023-08-14T17:15:41.491Z,3.47
2023-08-14T17:18:14.119Z,2.45
2023-08-14T17:20:48.028Z,7.72
2023-08-14T17:23:20.636Z,2.70
2023-08-14T17:25:55.054Z,3.28
2023-08-14T17:28:28.726Z,4.38
2023-08-14T17:31:01.665Z,4.78
2023-08-14T17:33:34.293Z,3.13
2023-08-14T17:36:07.325Z,5.60
2023-08-14T17:38:39.890Z,3.40
2023-08-14T17:41:13.260Z,5.63
2023-08-14T17:43:45.833Z,3.72
2023-08-14T17:46:18.707Z,2.50
2023-08-14T17:48:51.304Z,3.55
2023-08-14T17:51:24.140Z,4.68
2023-08-14T17:53:56.752Z,3.97
2023-08-14T17:56:29.575Z,8.18
2023-08-14T17:59:02.994Z,9.10
2023-08-14T18:01:35.878Z,6.05
2023-08-14T18:04:08.544Z,3.72
2023-08-14T18:06:41.488Z,3.03
2023-08-14T18:09:14.852Z,4.72
2023-08-14T18:11:47.694Z,3.53
2023-08-14T18:14:20.413Z,7.93
2023-08-14T18:16:53.265Z,6.90
2023-08-14T18:19:29.567Z,5.43
2023-08-14T18:22:03.124Z,9.25
2023-08-14T18:24:37.065Z,3.92
2023-08-14T18:27:09.865Z,8.18
2023-08-14T18:29:42.397Z,8.73
2023-08-14T18:32:15.182Z,9.48
2023-08-14T18:34:47.776Z,7.68
2023-08-14T18:37:21.946Z,10.07
2023-08-14T18:39:54.790Z,10.07
2023-08-14T18:42:27.590Z,9.95
2023-08-14T18:45:00.156Z,4.00
2023-08-14T18:47:33.866Z,3.50
2023-08-14T18:50:07.043Z,4.47
2023-08-14T18:52:40.130Z,6.13
2023-08-14T18:55:12.805Z,5.13
2023-08-14T18:57:45.637Z,5.95
2023-08-14T19:00:18.291Z,39.92
2023-08-14T19:02:51.397Z,52.83
2023-08-14T19:05:24.714Z,54.55
2023-08-14T19:07:57.786Z,124.65
2023-08-14T19:10:30.473Z,70.72
2023-08-14T19:13:03.639Z,63.42
2023-08-14T19:15:36.460Z,62.55
2023-08-14T19:18:09.318Z,55.67
2023-08-14T19:20:43.217Z,53.65
2023-08-14T19:23:16.004Z,49.00
2023-08-14T19:25:48.794Z,47.47
2023-08-14T19:28:22.617Z,50.63
2023-08-14T19:30:55.312Z,67.78
2023-08-14T19:33:28.228Z,55.38
2023-08-14T19:36:02.174Z,35.80
2023-08-14T19:38:35.080Z,43.67
2023-08-14T19:41:07.588Z,91.82
2023-08-14T19:43:40.395Z,49.58
2023-08-14T19:46:12.996Z,34.78
2023-08-14T19:48:45.941Z,23.45
2023-08-14T19:51:18.664Z,31.80
2023-08-14T19:53:51.641Z,38.45
2023-08-14T19:56:24.231Z,31.45
2023-08-14T19:58:57.170Z,26.45
2023-08-14T20:01:29.785Z,29.90
2023-08-14T20:04:02.877Z,27.23
2023-08-14T20:06:35.675Z,25.08
2023-08-14T20:09:08.874Z,17.23
2023-08-14T20:11:41.512Z,17.83
2023-08-14T20:14:14.422Z,17.08
2023-08-14T20:16:47.233Z,17.15
2023-08-14T20:19:22.548Z,11.73
2023-08-14T20:21:55.205Z,17.17
2023-08-14T20:24:28.582Z,16.63
2023-08-14T20:27:01.313Z,9.75
2023-08-14T20:29:34.457Z,12.80
2023-08-14T20:32:08.005Z,17.63
2023-08-14T20:34:40.811Z,17.65
2023-08-14T20:37:17.965Z,12.75
2023-08-14T20:39:52.013Z,11.75
2023-08-14T20:42:25.106Z,9.75
2023-08-14T20:44:58.456Z,8.48
2023-08-14T20:47:31.781Z,11.27
2023-08-14T20:50:05.702Z,10.50
2023-08-14T20:52:39.526Z,9.45
2023-08-14T20:55:12.731Z,7.85
2023-08-14T20:57:47.007Z,8.52
2023-08-14T21:00:19.909Z,12.02
2023-08-14T21:02:52.516Z,4.78
2023-08-14T21:05:26.958Z,8.95
2023-08-14T21:08:00.565Z,8.25
2023-08-14T21:10:37.516Z,10.82
2023-08-14T21:13:10.943Z,13.23
2023-08-14T21:15:43.912Z,15.43
2023-08-14T21:18:16.570Z,9.85
2023-08-14T21:20:49.900Z,15.95
2023-08-14T21:23:23.320Z,8.13
2023-08-14T21:25:56.722Z,10.35
2023-08-14T21:28:29.397Z,9.20
2023-08-14T21:31:02.591Z,8.45
2023-08-14T21:33:35.203Z,6.10
2023-08-14T21:36:08.438Z,18.92
2023-08-14T21:38:42.673Z,6.95
2023-08-14T21:41:15.691Z,16.67
2023-08-14T21:43:49.582Z,10.30
2023-08-14T21:46:24.648Z,7.60
2023-08-14T21:48:57.485Z,9.57
2023-08-14T21:51:30.711Z,7.13
2023-08-14T21:54:03.456Z,9.90
2023-08-14T21:56:36.247Z,6.57
2023-08-14T21:59:08.763Z,14.40
2023-08-14T22:01:41.664Z,14.77
2023-08-14T22:04:14.280Z,15.43
2023-08-14T22:06:47.118Z,11.88
2023-08-14T22:09:19.735Z,10.52
2023-08-14T22:11:52.634Z,7.55
2023-08-14T22:14:25.234Z,11.63
2023-08-14T22:16:59.657Z,7.00
2023-08-14T22:19:32.185Z,10.18
2023-08-14T22:22:05.206Z,7.95
2023-08-14T22:24:41.360Z,11.05
2023-08-14T22:27:14.660Z,6.75
2023-08-14T22:29:47.241Z,7.85
2023-08-14T22:32:20.157Z,5.43
2023-08-14T22:34:52.766Z,7.57
2023-08-14T22:37:25.634Z,6.85
2023-08-14T22:39:58.365Z,7.03
2023-08-14T22:42:31.879Z,9.82
2023-08-14T22:45:04.956Z,10.95
2023-08-14T22:47:37.711Z,7.30
2023-08-14T22:50:10.715Z,14.40
2023-08-14T22:52:43.570Z,8.00
2023-08-14T22:55:16.101Z,8.30
2023-08-14T22:57:48.859Z,8.50
2023-08-14T23:00:21.452Z,10.18
2023-08-14T23:02:57.803Z,5.47
2023-08-14T23:05:30.436Z,7.45
2023-08-14T23:08:03.307Z,10.18
2023-08-14T23:10:36.202Z,12.63
2023-08-14T23:13:09.113Z,19.80
2023-08-14T23:15:41.702Z,8.50
2023-08-14T23:18:14.595Z,10.52
2023-08-14T23:20:47.162Z,10.63
2023-08-14T23:23:19.996Z,11.35
2023-08-14T23:25:52.596Z,10.07
2023-08-14T23:28:25.468Z,13.00
2023-08-14T23:31:03.449Z,8.50
2023-08-14T23:33:36.297Z,14.57
2023-08-14T23:36:08.849Z,16.27
2023-08-14T23:38:41.668Z,12.70
2023-08-14T23:41:14.208Z,9.73
2023-08-14T23:43:47.020Z,10.93
2023-08-14T23:46:19.639Z,10.23
2023-08-14T23:48:52.862Z,14.32
2023-08-14T23:51:25.425Z,8.60
2023-08-14T23:53:58.502Z,12.18
2023-08-14T23:56:31.098Z,14.07
2023-08-14T23:59:04.097Z,10.10
